PROFILE

 METAR AND TAF INFORMATION
ADDS - METARS form results

(0101 UTC 13 November 2018)
http://aviationweather.gov/metar/data/
 
GOBD 130100Z 36016KT CAVOK 22/20 Q1012 NOSIG
GOBD 130030Z 35015KT CAVOK 22/20 Q1012 NOSIG
TAF GOBD 122330Z 1300/1406 36014KT CAVOK 

 AIRPORT MAP

 RUNWAY INFORMATION

 AIRPORT FREQUENCIES

 AIRPORT NEAR NAVIGATION AIDS